Time,TemperatureF,DewpointF,PressureIn,WindDirection,WindDirectionDegrees,WindSpeedMPH,WindSpeedGustMPH,Humidity,HourlyPrecipIn,Conditions,Clouds,dailyrainin,SoftwareType,DateUTC
2013-02-14 00:00:00,38.0,-99.9,29.68,NNW,345,6.0,9.0,-999,-99.99,,,-99.99,,2013-02-14 05:00:00,
2013-02-14 00:42:00,38.0,-99.9,29.68,NNW,345,6.0,9.0,-999,-99.99,,,-99.99,,2013-02-14 05:42:00,
2013-02-14 00:52:00,38.0,-99.9,29.68,NNW,345,6.0,9.0,-999,-99.99,,,-99.99,,2013-02-14 05:52:00,
2013-02-14 01:30:00,36.0,-99.9,29.65,NNE,26,19.0,22.0,-999,-99.99,,,-99.99,,2013-02-14 06:30:00,
2013-02-14 01:42:00,37.0,-99.9,29.64,North,11,19.0,22.0,-999,-99.99,,,-99.99,,2013-02-14 06:42:00,
2013-02-14 01:52:00,37.0,-99.9,29.64,North,11,19.0,22.0,-999,-99.99,,,-99.99,,2013-02-14 06:52:00,
2013-02-14 02:00:00,36.0,-99.9,29.71,NE,40,13.0,15.0,-999,-99.99,,,-99.99,,2013-02-14 07:00:00,
2013-02-14 02:01:00,36.0,-99.9,29.65,NNE,26,19.0,22.0,-999,-99.99,,,-99.99,,2013-02-14 07:01:00,
2013-02-14 02:11:00,36.0,-99.9,29.65,NNE,26,19.0,22.0,-999,-99.99,,,-99.99,,2013-02-14 07:11:00,
2013-02-14 02:22:00,36.0,-99.9,29.65,NNE,26,19.0,22.0,-999,-99.99,,,-99.99,,2013-02-14 07:22:00,
2013-02-14 02:42:00,36.0,-99.9,29.71,NE,40,13.0,15.0,-999,-99.99,,,-99.99,,2013-02-14 07:42:00,
2013-02-14 02:52:00,36.0,-99.9,29.71,NE,40,13.0,15.0,-999,-99.99,,,-99.99,,2013-02-14 07:52:00,
2013-02-14 03:00:00,35.0,-99.9,29.69,NNE,18,18.0,21.0,-999,-99.99,,,-99.99,,2013-02-14 08:00:00,
2013-02-14 03:43:00,35.0,-99.9,29.69,NNE,18,18.0,21.0,-999,-99.99,,,-99.99,,2013-02-14 08:43:00,
2013-02-14 03:52:00,35.0,-99.9,29.69,NNE,18,18.0,21.0,-999,-99.99,,,-99.99,,2013-02-14 08:52:00,
2013-02-14 04:30:00,35.0,-99.9,29.69,NNE,14,18.0,23.0,-999,-99.99,,,-99.99,,2013-02-14 09:30:00,
2013-02-14 05:00:00,35.0,-99.9,29.70,NNE,12,19.0,22.0,-999,-99.99,,,-99.99,,2013-02-14 10:00:00,
2013-02-14 05:02:00,35.0,-99.9,29.69,NNE,14,18.0,23.0,-999,-99.99,,,-99.99,,2013-02-14 10:02:00,
2013-02-14 05:11:00,35.0,-99.9,29.69,NNE,14,18.0,23.0,-999,-99.99,,,-99.99,,2013-02-14 10:11:00,
2013-02-14 05:22:00,35.0,-99.9,29.69,NNE,14,18.0,23.0,-999,-99.99,,,-99.99,,2013-02-14 10:22:00,
2013-02-14 05:42:00,35.0,-99.9,29.70,NNE,12,19.0,22.0,-999,-99.99,,,-99.99,,2013-02-14 10:42:00,
2013-02-14 05:52:00,35.0,-99.9,29.70,NNE,12,19.0,22.0,-999,-99.99,,,-99.99,,2013-02-14 10:52:00,
2013-02-14 06:00:00,34.0,-99.9,29.71,NNE,16,19.0,22.0,-999,-99.99,,,-99.99,,2013-02-14 11:00:00,
2013-02-14 06:42:00,34.0,-99.9,29.71,NNE,16,19.0,22.0,-999,-99.99,,,-99.99,,2013-02-14 11:42:00,
2013-02-14 06:52:00,34.0,-99.9,29.71,NNE,16,19.0,22.0,-999,-99.99,,,-99.99,,2013-02-14 11:52:00,
2013-02-14 07:00:00,34.0,-99.9,29.72,NNE,12,18.0,22.0,-999,-99.99,,,-99.99,,2013-02-14 12:00:00,
2013-02-14 07:42:00,34.0,-99.9,29.72,NNE,12,18.0,22.0,-999,-99.99,,,-99.99,,2013-02-14 12:42:00,
2013-02-14 07:53:00,34.0,-99.9,29.72,NNE,12,18.0,22.0,-999,-99.99,,,-99.99,,2013-02-14 12:53:00,
2013-02-14 08:30:00,34.0,-99.9,29.76,North,358,16.0,18.0,-999,-99.99,,,-99.99,,2013-02-14 13:30:00,
2013-02-14 09:00:00,33.0,-99.9,29.76,North,355,16.0,19.0,-999,-99.99,,,-99.99,,2013-02-14 14:00:00,
2013-02-14 09:01:00,34.0,-99.9,29.76,North,358,16.0,18.0,-999,-99.99,,,-99.99,,2013-02-14 14:01:00,
2013-02-14 09:11:00,34.0,-99.9,29.76,North,358,16.0,18.0,-999,-99.99,,,-99.99,,2013-02-14 14:11:00,
2013-02-14 09:22:00,34.0,-99.9,29.76,North,358,16.0,18.0,-999,-99.99,,,-99.99,,2013-02-14 14:22:00,
2013-02-14 09:42:00,33.0,-99.9,29.76,North,355,16.0,19.0,-999,-99.99,,,-99.99,,2013-02-14 14:42:00,
2013-02-14 09:52:00,33.0,-99.9,29.76,North,355,16.0,19.0,-999,-99.99,,,-99.99,,2013-02-14 14:52:00,
2013-02-14 10:00:00,34.0,-99.9,29.76,North,356,16.0,20.0,-999,-99.99,,,-99.99,,2013-02-14 15:00:00,
2013-02-14 10:42:00,34.0,-99.9,29.76,North,356,16.0,20.0,-999,-99.99,,,-99.99,,2013-02-14 15:42:00,
2013-02-14 10:52:00,34.0,-99.9,29.76,North,356,16.0,20.0,-999,-99.99,,,-99.99,,2013-02-14 15:52:00,
2013-02-14 11:00:00,35.0,-99.9,29.78,North,350,15.0,20.0,-999,-99.99,,,-99.99,,2013-02-14 16:00:00,
2013-02-14 11:42:00,35.0,-99.9,29.78,North,350,15.0,20.0,-999,-99.99,,,-99.99,,2013-02-14 16:42:00,
2013-02-14 11:52:00,35.0,-99.9,29.78,North,350,15.0,20.0,-999,-99.99,,,-99.99,,2013-02-14 16:52:00,
2013-02-14 12:00:00,35.0,-99.9,29.78,NNW,341,17.0,20.0,-999,-99.99,,,-99.99,,2013-02-14 17:00:00,
2013-02-14 12:42:00,35.0,-99.9,29.78,NNW,341,17.0,20.0,-999,-99.99,,,-99.99,,2013-02-14 17:42:00,
2013-02-14 12:52:00,35.0,-99.9,29.78,NNW,341,17.0,20.0,-999,-99.99,,,-99.99,,2013-02-14 17:52:00,
2013-02-14 13:00:00,36.0,-99.9,29.79,North,359,11.0,13.0,-999,-99.99,,,-99.99,,2013-02-14 18:00:00,
2013-02-14 13:42:00,36.0,-99.9,29.79,North,359,11.0,13.0,-999,-99.99,,,-99.99,,2013-02-14 18:42:00,
2013-02-14 13:52:00,36.0,-99.9,29.79,North,359,11.0,13.0,-999,-99.99,,,-99.99,,2013-02-14 18:52:00,
2013-02-14 14:00:00,37.0,-99.9,29.80,NNW,329,12.0,16.0,-999,-99.99,,,-99.99,,2013-02-14 19:00:00,
2013-02-14 14:42:00,37.0,-99.9,29.80,NNW,329,12.0,16.0,-999,-99.99,,,-99.99,,2013-02-14 19:42:00,
2013-02-14 14:52:00,37.0,-99.9,29.80,NNW,329,12.0,16.0,-999,-99.99,,,-99.99,,2013-02-14 19:52:00,
2013-02-14 15:00:00,38.0,-99.9,29.82,North,0,10.0,14.0,-999,-99.99,,,-99.99,,2013-02-14 20:00:00,
2013-02-14 15:42:00,38.0,-99.9,29.82,North,0,10.0,14.0,-999,-99.99,,,-99.99,,2013-02-14 20:42:00,
2013-02-14 15:52:00,38.0,-99.9,29.82,North,0,10.0,14.0,-999,-99.99,,,-99.99,,2013-02-14 20:52:00,
2013-02-14 16:00:00,38.0,-99.9,29.84,North,3,9.0,12.0,-999,-99.99,,,-99.99,,2013-02-14 21:00:00,
2013-02-14 16:42:00,38.0,-99.9,29.84,North,3,9.0,12.0,-999,-99.99,,,-99.99,,2013-02-14 21:42:00,
2013-02-14 16:52:00,38.0,-99.9,29.84,North,3,9.0,12.0,-999,-99.99,,,-99.99,,2013-02-14 21:52:00,
2013-02-14 17:00:00,38.0,-99.9,29.87,NW,314,10.0,12.0,-999,-99.99,,,-99.99,,2013-02-14 22:00:00,
2013-02-14 17:42:00,38.0,-99.9,29.87,NW,314,10.0,12.0,-999,-99.99,,,-99.99,,2013-02-14 22:42:00,
2013-02-14 17:52:00,38.0,-99.9,29.87,NW,314,10.0,12.0,-999,-99.99,,,-99.99,,2013-02-14 22:52:00,
2013-02-14 18:00:00,38.0,-99.9,29.90,WNW,300,9.0,11.0,-999,-99.99,,,-99.99,,2013-02-14 23:00:00,
2013-02-14 18:42:00,38.0,-99.9,29.90,WNW,300,9.0,11.0,-999,-99.99,,,-99.99,,2013-02-14 23:42:00,
2013-02-14 18:52:00,38.0,-99.9,29.90,WNW,300,9.0,11.0,-999,-99.99,,,-99.99,,2013-02-14 23:52:00,
2013-02-14 19:00:00,38.0,-99.9,29.93,WNW,287,7.0,8.0,-999,-99.99,,,-99.99,,2013-02-15 00:00:00,
2013-02-14 19:42:00,38.0,-99.9,29.93,WNW,287,7.0,8.0,-999,-99.99,,,-99.99,,2013-02-15 00:42:00,
2013-02-14 19:52:00,38.0,-99.9,29.93,WNW,287,7.0,8.0,-999,-99.99,,,-99.99,,2013-02-15 00:52:00,
2013-02-14 20:00:00,38.0,-99.9,29.95,WNW,291,5.0,6.0,-999,-99.99,,,-99.99,,2013-02-15 01:00:00,
2013-02-14 20:42:00,38.0,-99.9,29.95,WNW,291,5.0,6.0,-999,-99.99,,,-99.99,,2013-02-15 01:42:00,
2013-02-14 20:52:00,38.0,-99.9,29.95,WNW,291,5.0,6.0,-999,-99.99,,,-99.99,,2013-02-15 01:52:00,
2013-02-14 21:00:00,37.0,-99.9,29.95,NW,323,11.0,13.0,-999,-99.99,,,-99.99,,2013-02-15 02:00:00,
2013-02-14 21:42:00,37.0,-99.9,29.95,NW,323,11.0,13.0,-999,-99.99,,,-99.99,,2013-02-15 02:42:00,
2013-02-14 21:52:00,37.0,-99.9,29.95,NW,323,11.0,13.0,-999,-99.99,,,-99.99,,2013-02-15 02:52:00,
2013-02-14 22:00:00,36.0,-99.9,29.95,NW,313,6.0,8.0,-999,-99.99,,,-99.99,,2013-02-15 03:00:00,
2013-02-14 22:42:00,36.0,-99.9,29.95,NW,313,6.0,8.0,-999,-99.99,,,-99.99,,2013-02-15 03:42:00,
2013-02-14 22:52:00,36.0,-99.9,29.95,NW,313,6.0,8.0,-999,-99.99,,,-99.99,,2013-02-15 03:52:00,
2013-02-14 23:00:00,37.0,-99.9,29.95,WNW,292,6.0,8.0,-999,-99.99,,,-99.99,,2013-02-15 04:00:00,
2013-02-14 23:42:00,37.0,-99.9,29.95,WNW,292,6.0,8.0,-999,-99.99,,,-99.99,,2013-02-15 04:42:00,
2013-02-14 23:52:00,37.0,-99.9,29.95,WNW,292,6.0,8.0,-999,-99.99,,,-99.99,,2013-02-15 04:52:00,